Etusivu
METAR-TAF:

METAR-TAF

Lentoasemat :

Cook Municipal Airport

Cook, Minnesota, Yhdysvallat

Leveyspiiri: 47-49-19N, Pituuspiiri: 092-41-22W, korkeus merenpinnasta: 405 m

Tämänhetkinen sää

Tämä raportti tehtiin 26 minuuttia sitten, kello 16.16 UTC
Tuuli 7 kn lännestä/luoteesta
Lämpötila 4°C
Kosteus 93%
Ilmanpaine 1018 hPa
Näkyvyys: 6.4 km
Hajonneita pilviä 1000 ft:n korkeudessa
Pilvistä 1600 ft:n korkeudessa
utua

METAR: KCQM 161616Z AUTO 29007KT 4SM BR BKN010 OVC016 04/03 A3007 RMK AO2

Aika: 11:42 (16:42 UTC)


TAF: puuttuu

Säähavainnot ja -ennusteet yli 4000 lentoasemalta (METAR- ja TAF-raportit).

Käytössä olevat sääasemat on merkitty karttaan keltaisilla ja punaisilla pisteillä.

Aseta hiiri pisteen päälle nähdäksesi sääaseman nimen.

Klikkaa sitten nähdäksesi säähavainnot ja -ennusteet.

Kartan vaihtaminen: klikkaa mustalla rastilla varustettuja vihreitä pisteitä, niin voit zoomata sisään; viivalla varustettua vihreää pistettä, niin voit zoomata ulos tai vihreitä nuolia, niin pääset viereisille kartoille.


METAR-TAF: